Time;durP1;ratioP1;P1;durP2;ratioP2;P2;SDS_P1;SDS_P2;PMS_P1;PMS_P2;Temp;Humidity;BMP_temperature;BMP_pressure;BME280_temperature;BME280_humidity;BME280_pressure;Samples;Min_cycle;Max_cycle;Signal;HPM_P1;HPM_P2
2023/01/16 00:01:18;;;;;;;0.63;0.63;;;9.10;55.30;;;7.95;58.56;99722.16;12251465;19;20408;-85
2023/01/16 00:05:20;;;;;;;0.75;0.70;;;9.20;55.40;;;7.92;58.56;99709.34;12252598;19;20010;-86
2023/01/16 00:09:22;;;;;;;0.82;0.70;;;9.20;55.50;;;7.77;58.57;99690.31;12256057;19;20052;-86
2023/01/16 00:13:23;;;;;;;1.35;1.02;;;9.20;55.30;;;7.84;58.67;99694.22;12255388;19;20472;-86
2023/01/16 00:17:25;;;;;;;0.70;0.70;;;9.20;55.30;;;7.84;58.79;99680.41;12269924;19;20090;-87
2023/01/16 00:21:27;;;;;;;1.15;0.65;;;9.20;55.30;;;7.95;58.72;99697.00;12267495;19;20046;-87
2023/01/16 00:25:29;;;;;;;0.50;0.50;;;9.10;55.20;;;7.82;58.59;99679.66;12268770;19;20017;-86
2023/01/16 00:29:31;;;;;;;1.13;0.80;;;9.20;55.20;;;7.80;58.68;99679.72;12267102;19;20018;-87
2023/01/16 00:33:33;;;;;;;0.90;0.60;;;9.20;55.30;;;7.86;58.51;99689.78;12264160;19;20092;-87
2023/01/16 00:37:35;;;;;;;0.70;0.70;;;9.20;55.30;;;7.83;58.81;99683.91;12262454;19;20021;-86
2023/01/16 00:41:37;;;;;;;1.42;0.65;;;9.20;55.30;;;7.66;58.62;99662.38;12264862;19;20021;-87
2023/01/16 00:45:39;;;;;;;1.58;0.80;;;9.20;55.20;;;7.89;58.75;99702.59;12261362;19;20026;-86
2023/01/16 00:49:41;;;;;;;1.55;1.00;;;9.20;55.30;;;7.86;58.68;99692.38;12265059;19;20019;-86
2023/01/16 00:53:43;;;;;;;0.70;0.70;;;9.20;55.30;;;7.84;58.54;99690.78;12264342;19;20018;-87
2023/01/16 00:57:44;;;;;;;0.57;0.57;;;9.20;55.30;;;7.89;58.57;99699.16;12267096;19;20022;-87
2023/01/16 01:01:46;;;;;;;0.70;0.70;;;9.20;55.20;;;7.94;58.46;99708.34;12262446;19;20034;-86
2023/01/16 01:05:48;;;;;;;0.57;0.57;;;9.40;55.30;;;7.87;58.57;99706.19;12261935;19;20014;-87
2023/01/16 01:09:49;;;;;;;0.60;0.60;;;9.20;55.20;;;7.94;58.71;99717.91;12265343;19;20063;-86
2023/01/16 01:13:51;;;;;;;1.70;0.60;;;9.20;55.30;;;7.96;58.67;99716.84;12262500;19;20445;-86
2023/01/16 01:17:53;;;;;;;0.50;0.50;;;9.20;55.30;;;7.95;58.56;99725.59;12265525;19;20018;-87
2023/01/16 01:21:54;;;;;;;1.00;0.57;;;9.10;55.10;;;7.58;58.68;99668.97;12260367;19;20017;-86
2023/01/16 01:25:57;;;;;;;0.98;0.50;;;9.10;55.00;;;7.88;58.41;99728.66;12258081;19;20026;-87
2023/01/16 01:30:02;;;;;;;0.90;0.52;;;9.10;55.20;;;7.81;58.64;99717.81;12262612;19;20017;-87
2023/01/16 01:34:04;;;;;;;1.08;0.80;;;9.10;55.30;;;7.50;58.53;99674.63;12264562;19;20010;-87
2023/01/16 01:38:05;;;;;;;1.27;0.77;;;9.00;55.30;;;7.81;58.42;99725.59;12263162;19;20451;-86
2023/01/16 01:46:42;;;;;;;1.38;0.70;;;9.00;55.20;;;7.71;58.30;99708.88;12262930;19;20023;-86
2023/01/16 01:51:08;;;;;;;0.68;0.50;;;8.90;55.10;;;7.69;58.23;99719.34;12261497;19;20351;-86
2023/01/16 01:55:12;;;;;;;0.85;0.70;;;8.90;55.20;;;7.66;58.50;99714.34;12259816;19;20072;-87
2023/01/16 01:59:22;;;;;;;3.50;0.70;;;8.90;55.30;;;7.56;58.55;99696.78;12262157;19;20027;-86
2023/01/16 02:03:37;;;;;;;1.17;0.60;;;8.90;55.30;;;7.61;58.61;99710.34;12262192;19;20514;-87
2023/01/16 02:07:39;;;;;;;3.90;0.70;;;8.90;55.30;;;7.60;58.40;99695.69;12260148;19;20062;-86
2023/01/16 02:12:00;;;;;;;1.05;0.60;;;8.90;55.50;;;7.51;58.44;99681.50;12260509;19;20771;-86
2023/01/16 02:20:25;;;;;;;0.77;0.50;;;8.80;55.60;;;7.56;58.28;99686.41;12261141;19;20089;-87
2023/01/16 02:24:58;;;;;;;0.50;0.50;;;8.90;55.60;;;7.65;58.49;99696.25;12259954;19;20022;-86
2023/01/16 02:29:17;;;;;;;0.70;0.60;;;8.80;55.50;;;7.66;58.43;99693.56;12259486;19;20038;-87
2023/01/16 02:33:54;;;;;;;0.60;0.60;;;8.90;55.60;;;7.47;58.47;99669.59;12255664;19;20019;-87
2023/01/16 02:38:22;;;;;;;0.85;0.65;;;8.90;55.50;;;7.56;58.45;99679.47;12251824;19;20034;-87
2023/01/16 02:42:43;;;;;;;0.45;0.40;;;8.80;55.50;;;7.59;58.47;99683.63;12252597;19;20010;-87
2023/01/16 02:46:56;;;;;;;0.40;0.40;;;8.80;55.50;;;7.58;58.40;99675.00;12260563;19;20474;-86
2023/01/16 02:51:11;;;;;;;1.20;0.65;;;8.80;55.60;;;7.42;58.54;99646.50;12254697;19;20464;-86
2023/01/16 02:55:26;;;;;;;0.57;0.50;;;8.80;55.60;;;7.54;58.57;99663.13;12262379;19;20019;-86
2023/01/16 02:59:29;;;;;;;2.03;0.63;;;8.70;55.60;;;7.51;58.59;99652.94;12269222;19;20022;-87
2023/01/16 03:03:52;;;;;;;0.55;0.55;;;8.70;55.60;;;7.52;58.45;99649.38;12270622;19;20038;-86
2023/01/16 03:08:19;;;;;;;1.15;0.65;;;8.70;55.50;;;7.44;58.45;99636.03;12272146;19;20022;-86
2023/01/16 03:12:39;;;;;;;0.47;0.47;;;8.70;55.60;;;7.42;58.54;99630.09;12271427;19;20010;-87
2023/01/16 03:17:07;;;;;;;0.50;0.50;;;8.70;55.60;;;7.34;58.34;99616.72;12264120;19;20103;-87
2023/01/16 03:21:11;;;;;;;0.60;0.60;;;8.60;55.60;;;7.46;58.60;99631.59;12268024;19;20027;-86
2023/01/16 03:25:26;;;;;;;0.73;0.50;;;8.60;55.70;;;7.37;58.42;99607.00;12266437;19;20018;-87
2023/01/16 03:29:51;;;;;;;0.50;0.50;;;8.60;55.70;;;7.34;58.41;99603.75;12272222;19;20328;-87
2023/01/16 03:34:38;;;;;;;2.17;0.93;;;8.60;55.80;;;7.39;58.40;99612.91;12268118;19;20026;-86
2023/01/16 03:38:42;;;;;;;;;;;8.60;55.70;;;7.24;58.58;99603.47;12268286;19;20103;-87
2023/01/16 03:42:55;;;;;;;0.57;0.57;;;8.60;55.80;;;7.31;58.35;99605.59;12269739;19;19929;-87
2023/01/16 03:47:00;;;;;;;0.50;0.50;;;8.60;55.70;;;7.12;58.47;99573.84;12266841;19;20014;-87
2023/01/16 03:51:06;;;;;;;0.70;0.70;;;8.60;55.70;;;7.21;58.60;99588.03;12270291;19;20070;-87
2023/01/16 03:55:19;;;;;;;1.00;0.90;;;8.50;55.70;;;7.28;58.39;99602.34;12267557;19;20060;-87
2023/01/16 03:59:21;;;;;;;0.90;0.90;;;8.50;55.70;;;6.95;58.65;99541.13;12267407;19;20490;-86
2023/01/16 04:03:33;;;;;;;1.88;1.00;;;8.50;55.70;;;7.19;58.54;99580.38;12259292;19;20022;-86
2023/01/16 04:07:54;;;;;;;2.63;0.90;;;8.40;55.70;;;7.20;58.49;99581.19;12259598;19;20010;-86
2023/01/16 04:11:58;;;;;;;1.63;0.90;;;8.40;55.70;;;6.90;58.39;99532.78;12261753;19;20010;-86
2023/01/16 04:16:02;;;;;;;1.58;1.02;;;8.40;55.70;;;7.13;58.40;99565.16;12256915;19;20048;-86
2023/01/16 04:20:07;;;;;;;0.80;0.80;;;8.40;55.80;;;6.94;58.34;99533.41;12261228;19;20006;-86
2023/01/16 04:24:08;;;;;;;1.00;0.70;;;8.30;55.80;;;7.06;58.53;99553.47;12257401;19;20019;-86
2023/01/16 04:28:10;;;;;;;2.13;0.90;;;8.30;55.80;;;6.96;58.43;99532.41;12257910;19;20018;-87
2023/01/16 04:32:11;;;;;;;2.47;1.00;;;8.30;55.80;;;6.95;58.52;99528.16;12259926;19;20026;-84
2023/01/16 04:36:13;;;;;;;1.48;0.80;;;8.30;55.70;;;6.96;58.61;99524.63;12252098;19;20027;-85
2023/01/16 04:40:15;;;;;;;1.52;0.90;;;8.30;55.80;;;7.01;58.41;99529.53;12254750;19;20010;-85
2023/01/16 04:44:18;;;;;;;1.42;1.00;;;8.20;55.80;;;6.99;58.59;99521.00;12251494;19;20025;-85
2023/01/16 04:48:19;;;;;;;0.80;0.80;;;8.20;55.80;;;6.96;58.60;99498.66;12256266;19;20010;-84
2023/01/16 04:52:21;;;;;;;0.90;0.90;;;8.20;55.90;;;6.89;58.56;99484.41;12253810;19;20081;-85
2023/01/16 04:56:23;;;;;;;1.75;0.70;;;8.10;55.90;;;6.90;58.58;99487.84;12250374;19;20081;-85
2023/01/16 05:00:24;;;;;;;0.98;0.95;;;8.10;55.90;;;6.89;58.43;99488.78;12249497;19;20077;-85
2023/01/16 05:04:26;;;;;;;1.23;0.90;;;8.10;55.90;;;6.85;58.49;99495.88;12251718;19;20611;-85
2023/01/16 05:08:28;;;;;;;1.15;0.88;;;8.20;56.00;;;6.86;58.46;99490.63;12253225;19;20031;-85
2023/01/16 05:12:30;;;;;;;0.80;0.77;;;8.10;55.90;;;6.86;58.37;99495.81;12252553;19;20022;-85
2023/01/16 05:16:32;;;;;;;0.80;0.80;;;8.10;56.00;;;6.68;58.56;99464.94;12249053;19;20083;-86
2023/01/16 05:20:33;;;;;;;1.08;0.93;;;8.00;56.00;;;6.81;58.73;99489.22;12250229;19;20452;-84
2023/01/16 05:24:35;;;;;;;0.82;0.75;;;8.00;56.00;;;6.84;58.67;99486.44;12249849;19;20122;-85
2023/01/16 05:28:37;;;;;;;3.10;1.10;;;8.00;56.00;;;6.82;58.53;99493.47;12254741;19;20070;-85
2023/01/16 05:32:39;;;;;;;1.02;0.85;;;8.00;55.90;;;6.22;58.45;99400.22;12251956;19;20014;-84
2023/01/16 05:36:40;;;;;;;1.50;0.95;;;8.00;55.90;;;6.71;58.74;99486.31;12247042;19;20019;-85
2023/01/16 05:40:44;;;;;;;0.90;0.80;;;7.90;55.90;;;6.69;58.44;99471.78;12242838;19;20006;-85
2023/01/16 05:44:45;;;;;;;1.25;0.80;;;7.90;56.00;;;6.69;58.48;99476.97;12247923;19;20011;-85
2023/01/16 05:48:47;;;;;;;1.30;0.85;;;7.90;56.00;;;6.54;58.60;99457.97;12248786;19;20010;-84
2023/01/16 05:52:49;;;;;;;2.60;1.20;;;7.90;56.00;;;6.63;58.63;99486.78;12250761;19;20022;-85
2023/01/16 05:56:51;;;;;;;1.33;1.00;;;7.90;56.00;;;6.64;58.61;99480.69;12251393;19;20031;-85
2023/01/16 06:00:52;;;;;;;1.58;0.75;;;7.80;56.00;;;6.57;58.62;99469.00;12247519;19;20571;-85
2023/01/16 06:04:55;;;;;;;0.90;0.65;;;7.80;55.90;;;6.54;58.70;99469.19;12247514;19;20368;-85
2023/01/16 06:08:57;;;;;;;1.05;0.85;;;7.80;56.00;;;6.43;58.54;99451.66;12248316;19;20027;-85
2023/01/16 06:13:01;;;;;;;0.77;0.77;;;7.80;56.00;;;6.53;58.68;99462.28;12247226;19;20031;-85
2023/01/16 06:17:03;;;;;;;0.80;0.80;;;7.70;56.00;;;6.29;58.67;99427.44;12249377;19;20453;-85
2023/01/16 06:21:05;;;;;;;3.00;1.23;;;7.70;56.00;;;6.44;58.81;99449.88;12245172;19;20051;-84
2023/01/16 06:25:07;;;;;;;2.78;0.90;;;7.70;56.10;;;6.26;58.64;99417.25;12245963;19;20014;-85
2023/01/16 06:29:10;;;;;;;1.00;0.65;;;7.70;56.20;;;6.33;58.66;99434.13;12248704;19;20018;-85
2023/01/16 06:33:12;;;;;;;0.77;0.73;;;7.70;56.20;;;6.23;58.62;99423.44;12244144;19;20030;-85
2023/01/16 06:37:13;;;;;;;1.10;0.60;;;7.70;56.20;;;6.39;58.65;99444.13;12248075;19;20085;-85
2023/01/16 06:41:15;;;;;;;1.70;0.95;;;7.60;56.20;;;6.34;58.73;99431.44;12246176;19;20098;-85
2023/01/16 06:45:21;;;;;;;0.68;0.68;;;7.60;56.20;;;6.35;58.77;99424.50;12245788;19;20011;-84
2023/01/16 06:49:23;;;;;;;1.05;0.70;;;7.60;56.20;;;6.27;58.75;99408.56;12248173;19;20642;-85
2023/01/16 06:53:25;;;;;;;2.15;0.90;;;7.60;56.20;;;6.35;58.63;99429.69;12245785;19;20048;-84
2023/01/16 06:57:27;;;;;;;2.55;0.95;;;7.60;56.20;;;6.36;58.83;99426.16;12246786;19;20072;-85
2023/01/16 07:01:28;;;;;;;1.80;0.90;;;7.60;56.20;;;6.35;58.67;99425.34;12243914;19;20350;-84
2023/01/16 07:05:30;;;;;;;1.70;0.80;;;7.60;56.20;;;6.32;58.80;99411.69;12242117;19;20216;-84
2023/01/16 07:09:32;;;;;;;2.22;0.73;;;7.50;56.10;;;6.29;58.87;99411.88;12246700;19;20371;-85
2023/01/16 07:13:34;;;;;;;2.05;0.80;;;7.60;56.20;;;6.22;58.75;99392.44;12242433;19;20497;-84
2023/01/16 07:26:19;;;;;;;0.70;0.70;;;7.60;56.20;;;6.19;58.67;99394.28;12240509;19;20025;-85
2023/01/16 07:30:22;;;;;;;0.95;0.90;;;7.50;56.20;;;6.10;58.74;99374.13;12242358;19;20049;-86
2023/01/16 07:34:23;;;;;;;0.68;0.68;;;7.50;56.20;;;6.33;58.80;99414.22;12243061;19;20018;-86
2023/01/16 07:38:25;;;;;;;1.40;0.80;;;7.50;56.20;;;6.17;58.73;99388.34;12244036;19;20007;-85
2023/01/16 07:42:26;;;;;;;0.95;0.90;;;7.50;56.20;;;6.10;58.96;99379.28;12249322;19;20018;-85
2023/01/16 07:46:28;;;;;;;1.75;0.75;;;7.70;56.20;;;6.24;58.92;99395.75;12253301;19;20006;-85
2023/01/16 07:50:30;;;;;;;0.75;0.63;;;7.60;56.20;;;6.18;58.76;99374.50;12256894;19;20021;-85
2023/01/16 07:54:35;;;;;;;0.85;0.80;;;7.60;56.20;;;6.31;58.81;99392.72;12254765;19;20014;-84
2023/01/16 07:58:39;;;;;;;3.45;0.98;;;7.50;56.20;;;6.27;58.74;99372.28;12252498;19;20484;-86
2023/01/16 08:02:41;;;;;;;1.20;1.10;;;7.60;56.20;;;6.22;58.97;99353.56;12255348;19;20020;-84
2023/01/16 08:06:44;;;;;;;2.28;0.93;;;7.50;56.10;;;6.24;59.06;99337.00;12253055;19;20010;-84
2023/01/16 08:10:46;;;;;;;2.03;1.20;;;7.60;56.10;;;6.35;58.75;99349.31;12247018;19;20488;-85
2023/01/16 08:14:47;;;;;;;2.28;0.93;;;7.60;55.90;;;6.33;58.78;99338.22;12251805;19;20015;-85
2023/01/16 08:18:49;;;;;;;1.00;0.90;;;7.60;56.10;;;6.06;58.96;99300.06;12252393;19;20030;-85
2023/01/16 08:22:52;;;;;;;1.20;1.10;;;7.60;55.90;;;6.35;59.05;99333.78;12252524;19;20370;-86
2023/01/16 08:26:54;;;;;;;0.80;0.80;;;7.70;56.10;;;6.31;58.96;99317.53;12252228;19;20018;-86
2023/01/16 08:30:55;;;;;;;0.70;0.70;;;7.70;55.90;;;6.44;58.94;99333.19;12253588;19;20011;-85
2023/01/16 08:34:57;;;;;;;4.55;1.80;;;7.70;56.00;;;6.42;58.76;99328.09;12248755;19;20010;-85
2023/01/16 08:38:59;;;;;;;1.17;1.10;;;7.70;55.70;;;6.18;58.79;99272.56;12251719;19;20329;-84
2023/01/16 08:51:45;;;;;;;1.08;1.00;;;7.70;55.80;;;6.41;58.78;99279.78;12253203;19;20078;-85
2023/01/16 08:55:47;;;;;;;0.85;0.85;;;7.80;55.60;;;6.40;58.88;99265.16;12249040;19;20018;-85
2023/01/16 08:59:48;;;;;;;1.30;0.75;;;7.80;55.50;;;6.24;58.85;99235.06;12250848;19;20018;-85
2023/01/16 09:03:50;;;;;;;1.50;0.90;;;7.90;55.50;;;6.52;58.88;99265.31;12247988;19;20014;-86
2023/01/16 09:07:53;;;;;;;1.00;0.88;;;7.80;55.60;;;6.53;58.80;99252.25;12251748;19;20039;-86
2023/01/16 09:16:21;;;;;;;0.70;0.70;;;7.80;55.30;;;6.61;58.85;99238.81;12249461;19;20060;-87
2023/01/16 09:20:23;;;;;;;2.47;1.00;;;7.90;55.50;;;6.29;58.82;99178.59;12250418;19;20060;-88
2023/01/16 09:24:25;;;;;;;3.67;1.20;;;7.90;55.30;;;6.65;58.75;99225.56;12252842;19;20013;-87
2023/01/16 09:28:26;;;;;;;1.27;1.00;;;7.90;55.50;;;6.61;58.85;99212.88;12247465;19;20081;-87
2023/01/16 09:32:28;;;;;;;1.90;0.90;;;7.90;55.40;;;6.45;58.96;99175.88;12250090;19;20468;-87
2023/01/16 09:36:29;;;;;;;0.80;0.80;;;8.00;55.50;;;6.72;58.65;99201.81;12244536;19;20026;-84
2023/01/16 09:40:32;;;;;;;2.95;1.02;;;8.00;55.40;;;6.75;58.82;99201.59;12249983;19;20021;-85
2023/01/16 09:44:34;;;;;;;1.77;1.00;;;8.00;55.30;;;6.83;58.87;99199.34;12248431;19;20468;-84
2023/01/16 09:48:50;;;;;;;3.70;1.27;;;8.10;55.20;;;6.94;58.76;99189.13;12250659;19;20030;-85
2023/01/16 10:01:46;;;;;;;2.15;0.73;;;8.40;55.40;;;7.17;58.67;99172.03;12246019;19;20014;-85
2023/01/16 10:06:15;;;;;;;0.80;0.80;;;8.60;54.90;;;7.19;58.62;99151.19;12240976;19;20022;-85
2023/01/16 10:10:46;;;;;;;1.83;0.88;;;8.50;54.90;;;7.39;58.72;99158.44;12247999;19;20006;-85
2023/01/16 10:15:12;;;;;;;1.75;0.90;;;8.60;54.60;;;7.48;58.61;99157.84;12247225;19;20049;-85
2023/01/16 10:19:30;;;;;;;1.73;1.10;;;8.70;54.70;;;7.50;58.71;99135.19;12248339;19;20021;-85
2023/01/16 10:23:53;;;;;;;2.08;1.40;;;8.90;54.60;;;7.60;58.66;99116.38;12242364;19;20018;-85
2023/01/16 10:28:28;;;;;;;1.70;1.52;;;9.00;54.50;;;7.78;58.73;99120.31;12246235;19;20029;-85
2023/01/16 10:32:38;;;;;;;2.35;1.50;;;9.00;54.50;;;7.79;58.53;99103.78;12248343;19;20372;-85
2023/01/16 10:36:45;;;;;;;2.50;1.50;;;9.20;54.40;;;7.96;58.55;99102.59;12243682;19;20028;-85
2023/01/16 10:40:51;;;;;;;1.35;1.00;;;9.20;53.90;;;8.01;58.61;99084.06;12243234;19;20026;-86
2023/01/16 10:49:27;;;;;;;0.82;0.82;;;9.50;53.70;;;8.19;58.54;99056.75;12247527;19;20015;-85
2023/01/16 10:53:31;;;;;;;1.25;1.02;;;9.60;54.00;;;8.27;58.31;99054.44;12245855;19;20369;-85
2023/01/16 10:57:34;;;;;;;3.17;1.27;;;9.60;53.80;;;8.36;58.25;99045.13;12248028;19;20090;-85
2023/01/16 11:01:37;;;;;;;1.30;1.15;;;9.70;53.00;;;8.31;58.32;99013.44;12242655;19;20078;-86
2023/01/16 11:05:39;;;;;;;0.98;0.98;;;9.80;53.20;;;8.46;58.19;99011.50;12239718;19;20085;-84
2023/01/16 11:09:45;;;;;;;0.90;0.90;;;9.80;53.00;;;8.19;58.05;98963.16;12249573;19;20027;-87
2023/01/16 11:18:29;;;;;;;1.48;1.08;;;9.90;53.60;;;8.66;57.98;99002.22;12258613;19;20022;-86
2023/01/16 11:22:39;;;;;;;0.73;0.68;;;10.00;53.50;;;8.68;57.95;98988.16;12252920;19;20010;-86
2023/01/16 11:26:55;;;;;;;1.50;0.93;;;10.10;53.50;;;8.69;57.94;98975.97;12255958;19;20006;-86
2023/01/16 11:31:01;;;;;;;3.13;1.20;;;10.10;53.70;;;8.67;58.08;98955.28;12253195;19;20352;-86
2023/01/16 11:35:10;;;;;;;1.20;0.88;;;10.20;53.20;;;8.52;57.81;98914.78;12253275;19;20010;-86
2023/01/16 11:39:23;;;;;;;1.50;1.00;;;10.10;53.20;;;8.69;57.75;98929.94;12257364;19;20074;-86
2023/01/16 11:47:54;;;;;;;1.23;1.13;;;10.20;52.80;;;8.87;57.82;98927.72;12251119;19;20027;-85
2023/01/16 11:52:02;;;;;;;1.25;1.05;;;10.30;52.90;;;8.85;57.89;98907.00;12255991;19;20014;-85
2023/01/16 11:56:42;;;;;;;1.42;1.13;;;10.30;52.80;;;8.92;57.38;98904.75;12250979;19;20417;-85
2023/01/16 12:00:47;;;;;;;1.00;0.98;;;10.30;51.50;;;9.01;57.51;98908.41;12250974;19;20014;-86
2023/01/16 12:10:41;;;;;;;1.17;0.88;;;10.40;52.50;;;9.08;57.52;98886.16;12256393;19;20066;-86
2023/01/16 12:14:49;;;;;;;1.27;0.85;;;10.40;52.20;;;9.03;57.50;98857.88;12251585;19;20003;-86
2023/01/16 12:18:59;;;;;;;1.17;1.10;;;10.40;51.30;;;9.19;57.42;98869.69;12252753;19;20031;-86
2023/01/16 12:23:40;;;;;;;1.15;1.02;;;10.50;52.30;;;9.21;57.26;98858.22;12252821;19;20026;-85
2023/01/16 12:28:38;;;;;;;1.58;0.90;;;10.50;51.50;;;9.24;57.34;98842.34;12254026;19;20376;-86
2023/01/16 12:33:21;;;;;;;1.58;0.80;;;10.60;52.10;;;9.30;57.15;98831.41;12252877;19;20415;-85
2023/01/16 12:37:36;;;;;;;1.75;1.10;;;10.60;52.20;;;9.34;57.31;98825.97;12249205;19;20019;-85
2023/01/16 12:46:55;;;;;;;1.13;0.77;;;10.70;51.80;;;9.41;57.13;98804.50;12244559;19;20015;-85
2023/01/16 12:51:40;;;;;;;13.25;6.22;;;10.70;51.70;;;9.45;56.96;98797.25;12250607;19;20011;-85
2023/01/16 12:55:54;;;;;;;8.10;3.80;;;10.70;51.60;;;9.49;57.05;98780.44;12248750;19;20018;-86
2023/01/16 13:00:09;;;;;;;2.55;1.67;;;10.80;51.30;;;9.52;56.97;98767.16;12250997;19;20023;-85
2023/01/16 13:04:24;;;;;;;1.20;1.10;;;10.80;51.30;;;9.51;56.92;98752.47;12245202;19;20006;-85
2023/01/16 13:09:00;;;;;;;1.15;0.80;;;10.80;51.80;;;9.57;56.68;98746.75;12250529;19;20023;-85
2023/01/16 13:13:24;;;;;;;0.90;0.90;;;10.90;51.10;;;9.48;56.94;98714.47;12248276;19;20487;-85
2023/01/16 13:17:45;;;;;;;1.63;0.60;;;10.90;52.20;;;9.56;56.73;98713.84;12250199;19;20014;-85
2023/01/16 13:22:09;;;;;;;0.70;0.65;;;10.90;52.00;;;9.51;56.64;98706.41;12246407;19;20043;-85
2023/01/16 13:26:17;;;;;;;0.68;0.60;;;10.90;51.90;;;9.51;56.70;98703.81;12245671;19;20460;-85
2023/01/16 13:30:20;;;;;;;0.98;0.70;;;10.90;52.00;;;9.53;56.83;98701.06;12250623;19;20031;-86
2023/01/16 13:34:37;;;;;;;1.38;0.90;;;10.90;51.50;;;9.54;56.64;98700.13;12246753;19;20617;-85
2023/01/16 13:39:31;;;;;;;0.80;0.77;;;10.90;51.90;;;9.47;56.50;98684.16;12247066;19;20039;-85
2023/01/16 13:48:33;;;;;;;4.03;1.23;;;10.90;51.70;;;9.56;56.52;98685.19;12247413;19;20086;-86
2023/01/16 13:52:35;;;;;;;0.93;0.90;;;10.90;52.50;;;9.53;56.65;98664.56;12248044;19;20003;-85
2023/01/16 13:56:40;;;;;;;1.02;0.68;;;10.90;52.30;;;9.47;56.42;98647.69;12246648;19;20014;-86
2023/01/16 14:00:44;;;;;;;1.80;1.00;;;10.80;52.00;;;9.57;56.39;98644.31;12248412;19;20090;-85
2023/01/16 14:05:42;;;;;;;0.90;0.80;;;10.90;51.60;;;9.55;56.31;98646.22;12238414;19;20021;-86
2023/01/16 14:10:21;;;;;;;1.67;1.30;;;10.80;51.80;;;9.47;56.09;98639.88;12249435;19;20066;-87
2023/01/16 14:18:56;;;;;;;1.05;0.80;;;10.80;51.70;;;9.52;56.28;98636.88;12245376;19;20070;-85
2023/01/16 14:27:40;;;;;;;2.05;1.27;;;10.70;52.10;;;9.42;56.23;98620.38;12243996;19;20381;-85
2023/01/16 14:31:50;;;;;;;1.48;1.20;;;10.70;51.30;;;9.38;56.25;98611.19;12242420;19;20021;-87
2023/01/16 14:35:55;;;;;;;2.92;1.38;;;10.60;51.40;;;9.36;56.28;98605.25;12241065;19;20021;-86
2023/01/16 14:40:19;;;;;;;4.07;1.38;;;10.60;51.70;;;9.28;55.95;98598.09;12242081;19;20014;-86
2023/01/16 14:57:29;;;;;;;1.13;0.93;;;10.50;51.70;;;9.15;56.16;98567.03;12246271;19;20014;-86
2023/01/16 15:06:19;;;;;;;1.85;0.90;;;10.40;52.00;;;9.13;56.24;98552.50;12242541;19;20015;-86
2023/01/16 15:10:33;;;;;;;0.63;0.63;;;10.40;52.00;;;9.11;56.09;98544.00;12247634;19;20013;-87
2023/01/16 15:14:35;;;;;;;1.15;1.05;;;10.40;52.20;;;9.11;56.10;98562.25;12243830;19;20022;-89
2023/01/16 15:23:17;;;;;;;1.42;1.00;;;10.30;52.40;;;8.98;56.05;98533.81;12239937;19;20026;-88
2023/01/16 15:27:28;;;;;;;2.22;1.02;;;10.30;52.40;;;8.98;55.96;98531.19;12246219;19;20048;-88
2023/01/16 15:31:39;;;;;;;1.15;0.80;;;10.20;52.40;;;8.96;56.08;98533.91;12246562;19;20027;-89
2023/01/16 15:35:40;;;;;;;1.50;1.10;;;10.20;52.10;;;8.80;56.03;98508.38;12245932;19;20039;-88
2023/01/16 15:39:45;;;;;;;1.23;0.75;;;10.20;52.20;;;8.90;55.96;98531.03;12247040;19;20040;-89
2023/01/16 15:48:48;;;;;;;1.33;1.08;;;10.10;52.40;;;8.83;55.89;98526.34;12248679;19;20010;-88
2023/01/16 15:52:50;;;;;;;1.20;1.10;;;10.10;52.10;;;8.73;55.92;98520.25;12245605;19;20014;-88
2023/01/16 15:56:51;;;;;;;2.33;1.23;;;10.00;52.10;;;8.72;56.10;98512.53;12244508;19;20014;-88
2023/01/16 16:01:00;;;;;;;1.58;1.40;;;10.00;52.40;;;8.74;56.03;98508.88;12242386;19;20476;-88
2023/01/16 16:05:02;;;;;;;3.10;1.40;;;10.00;52.30;;;8.69;56.00;98490.22;12253539;19;20015;-89
2023/01/16 16:09:06;;;;;;;4.63;2.58;;;9.90;52.30;;;8.52;55.81;98470.00;12259820;19;20078;-88
2023/01/16 16:13:12;;;;;;;3.67;1.60;;;10.10;52.40;;;8.55;55.84;98475.75;12254586;19;20010;-88
2023/01/16 16:26:14;;;;;;;3.03;1.60;;;9.80;52.40;;;8.41;55.72;98463.88;12250163;19;20050;-87
2023/01/16 16:30:29;;;;;;;1.50;1.30;;;9.80;52.20;;;8.42;56.07;98459.50;12251463;19;20014;-88
2023/01/16 16:34:32;;;;;;;2.10;1.77;;;9.70;52.30;;;8.45;56.04;98467.06;12255224;19;20030;-89
2023/01/16 16:38:51;;;;;;;2.22;1.48;;;9.70;52.00;;;8.26;55.93;98441.72;12258292;19;20018;-88
2023/01/16 16:42:58;;;;;;;2.05;1.25;;;9.60;52.30;;;8.36;55.80;98468.63;12248198;19;20040;-88
2023/01/16 16:47:00;;;;;;;2.35;1.38;;;9.60;52.30;;;8.31;55.86;98456.94;12256342;19;20014;-88
2023/01/16 16:51:26;;;;;;;2.90;2.38;;;9.60;52.30;;;8.27;55.76;98453.78;12255406;19;20024;-88
2023/01/16 16:55:39;;;;;;;6.65;4.03;;;9.50;52.30;;;8.05;55.84;98401.91;12252741;19;20432;-88
2023/01/16 16:59:42;;;;;;;22.92;10.18;;;9.50;52.20;;;8.22;55.95;98427.34;12254493;19;20003;-88
2023/01/16 17:03:48;;;;;;;11.15;7.32;;;9.50;52.20;;;8.02;55.87;98397.78;12254090;19;20015;-88
2023/01/16 17:07:50;;;;;;;8.23;4.47;;;9.40;52.50;;;8.14;55.93;98406.34;12252109;19;20020;-88
2023/01/16 17:11:52;;;;;;;4.13;3.03;;;9.50;52.30;;;7.98;55.84;98383.38;12251515;19;20006;-88
2023/01/16 17:15:56;;;;;;;2.63;2.03;;;9.50;52.50;;;8.14;55.82;98395.94;12250120;19;20433;-87
2023/01/16 17:19:58;;;;;;;2.60;1.70;;;9.60;52.40;;;8.17;55.88;98401.72;12252512;19;20018;-88
2023/01/16 17:24:00;;;;;;;3.15;2.30;;;9.40;52.30;;;7.88;55.74;98333.13;12250863;19;20035;-88
2023/01/16 17:28:02;;;;;;;3.42;2.10;;;9.60;52.40;;;8.13;55.95;98369.13;12253201;19;20014;-89
2023/01/16 17:32:04;;;;;;;3.05;1.80;;;9.40;52.20;;;8.10;55.87;98371.16;12254880;19;20014;-89
2023/01/16 17:36:20;;;;;;;1.45;1.30;;;9.30;52.30;;;8.02;55.85;98352.75;12252817;19;20010;-88
2023/01/16 17:40:22;;;;;;;2.28;1.80;;;9.30;52.40;;;8.10;55.81;98379.78;12250453;19;20019;-88
2023/01/16 17:48:45;;;;;;;3.03;1.95;;;9.20;52.30;;;8.02;55.83;98373.56;12253160;19;20023;-88
2023/01/16 17:52:52;;;;;;;3.72;2.28;;;9.20;52.30;;;7.83;55.99;98343.06;12243915;19;20338;-87
2023/01/16 17:56:54;;;;;;;2.80;2.13;;;9.20;52.30;;;7.98;55.70;98368.63;12251249;19;20030;-88
2023/01/16 18:01:03;;;;;;;5.72;3.40;;;9.00;52.10;;;8.00;55.79;98370.28;12250956;19;20025;-88
2023/01/16 18:05:06;;;;;;;4.20;2.83;;;9.20;52.40;;;7.94;55.80;98369.84;12252169;19;20078;-88
2023/01/16 18:09:11;;;;;;;3.83;2.45;;;9.20;52.40;;;7.80;55.93;98332.94;12251194;19;20031;-87
2023/01/16 18:17:34;;;;;;;2.30;1.50;;;9.20;52.50;;;7.89;55.88;98339.97;12253303;19;20819;-89
2023/01/16 18:25:55;;;;;;;3.13;1.60;;;9.10;52.40;;;7.86;55.77;98324.66;12249169;19;20035;-89
2023/01/16 18:30:00;;;;;;;5.80;3.00;;;9.10;52.40;;;7.92;55.96;98331.94;12252657;19;20014;-88
2023/01/16 18:34:01;;;;;;;2.60;2.40;;;9.10;52.30;;;7.75;55.75;98302.97;12249751;19;20354;-88
2023/01/16 19:04:18;;;;;;;2.13;1.90;;;9.20;52.40;;;7.95;55.77;98309.09;12248472;19;20018;-88
2023/01/16 19:08:23;;;;;;;3.15;2.33;;;9.10;52.40;;;7.95;55.92;98311.69;12251605;19;20015;-88
2023/01/16 19:12:33;;;;;;;3.53;2.85;;;9.20;52.40;;;7.94;55.88;98289.28;12249755;19;20022;-88
2023/01/16 19:16:43;;;;;;;5.88;3.92;;;9.20;52.50;;;7.87;55.94;98276.91;12245389;19;20013;-88
2023/01/16 19:20:45;;;;;;;4.10;2.42;;;9.20;52.30;;;7.95;55.99;98275.31;12252123;19;20076;-88
2023/01/16 19:24:46;;;;;;;3.20;2.33;;;9.20;52.30;;;7.96;55.85;98269.16;12255132;19;20454;-88
2023/01/16 19:28:48;;;;;;;3.47;2.75;;;9.30;52.50;;;7.94;55.81;98250.31;12255774;19;20015;-87
2023/01/16 19:32:50;;;;;;;2.85;1.92;;;9.20;52.40;;;7.94;55.68;98239.91;12246424;19;20010;-88
2023/01/16 19:36:55;;;;;;;3.47;2.22;;;9.20;52.30;;;8.00;55.66;98240.34;12254032;19;20014;-88
2023/01/16 19:41:03;;;;;;;2.03;1.90;;;9.20;52.20;;;7.54;55.59;98167.91;12259487;19;20039;-87
2023/01/16 19:49:29;;;;;;;7.95;4.07;;;9.20;52.00;;;7.91;55.62;98216.78;12271739;19;20031;-88
2023/01/16 19:53:30;;;;;;;2.95;2.40;;;9.20;52.30;;;7.93;55.70;98211.44;12270125;19;20014;-88
2023/01/16 19:57:32;;;;;;;2.25;2.05;;;9.20;52.10;;;7.90;55.81;98212.53;12269637;19;20476;-90
2023/01/16 20:02:02;;;;;;;1.77;1.67;;;9.20;52.30;;;7.92;55.59;98200.22;12226326;19;20022;-87
2023/01/16 20:06:04;;;;;;;3.45;2.13;;;9.10;52.20;;;7.88;55.52;98191.03;12184268;19;20094;-90
2023/01/16 20:10:07;;;;;;;1.70;1.60;;;9.10;52.00;;;7.88;55.75;98180.63;12190189;19;20026;-88